createdAt,value
2018-11-29T00:00:30.149Z,96278.83
2018-11-29T00:02:58.829Z,96281.72
2018-11-29T00:05:27.632Z,96287.11
2018-11-29T00:07:56.283Z,96295.77
2018-11-29T00:10:25.061Z,96294.61
2018-11-29T00:12:53.703Z,96302.45
2018-11-29T00:15:22.392Z,96305.52
2018-11-29T00:17:51.090Z,96305.17
2018-11-29T00:20:20.366Z,96308.97
2018-11-29T00:22:50.720Z,96314.48
2018-11-29T00:25:19.839Z,96316.95
2018-11-29T00:27:48.693Z,96311.52
2018-11-29T00:30:21.214Z,96312.85
2018-11-29T00:32:50.368Z,96319.36
2018-11-29T00:35:19.122Z,96324.66
2018-11-29T00:37:47.874Z,96315.48
2018-11-29T00:40:18.494Z,96329.20
2018-11-29T00:42:47.198Z,96324.73
2018-11-29T00:45:17.601Z,96330.97
2018-11-29T00:47:47.069Z,96333.95
2018-11-29T00:50:16.351Z,96335.78
2018-11-29T00:52:45.845Z,96327.02
2018-11-29T00:55:16.007Z,96329.77
2018-11-29T00:57:44.718Z,96335.34
2018-11-29T01:00:19.345Z,96341.50
2018-11-29T01:02:48.084Z,96339.42
2018-11-29T01:05:16.838Z,96343.85
2018-11-29T01:07:45.523Z,96353.80
2018-11-29T01:10:15.963Z,96349.55
2018-11-29T01:12:45.087Z,96352.19
2018-11-29T01:15:15.613Z,96354.06
2018-11-29T01:17:44.900Z,96362.91
2018-11-29T01:20:14.431Z,96367.52
2018-11-29T01:22:43.200Z,96039.09
2018-11-29T01:25:12.633Z,96356.38
2018-11-29T01:27:41.730Z,96362.52
2018-11-29T01:30:11.558Z,96366.13
2018-11-29T01:32:40.353Z,96372.99
2018-11-29T01:35:10.239Z,96365.83
2018-11-29T01:37:39.045Z,96366.92
2018-11-29T01:40:09.553Z,96357.53
2018-11-29T01:42:38.202Z,96360.32
2018-11-29T01:45:07.012Z,96365.67
2018-11-29T01:47:35.642Z,96370.12
2018-11-29T01:50:04.512Z,96370.09
2018-11-29T01:52:33.174Z,96370.61
2018-11-29T01:55:01.802Z,96374.08
2018-11-29T01:57:30.644Z,96368.30
2018-11-29T01:59:59.341Z,96371.23
2018-11-29T02:02:28.049Z,96371.81
2018-11-29T02:04:56.697Z,96375.54
2018-11-29T02:07:25.446Z,96372.11
2018-11-29T02:10:57.020Z,96377.83
2018-11-29T02:13:25.644Z,96372.84
2018-11-29T02:15:54.237Z,96383.41
2018-11-29T02:18:22.893Z,96382.51
2018-11-29T02:20:51.526Z,96383.90
2018-11-29T02:23:20.191Z,96381.05
2018-11-29T02:25:48.803Z,96377.30
2018-11-29T02:28:17.428Z,96376.36
2018-11-29T02:30:46.110Z,96377.08
2018-11-29T02:33:14.860Z,96383.84
2018-11-29T02:35:43.618Z,96386.41
2018-11-29T02:38:12.270Z,96380.59
2018-11-29T02:40:40.927Z,96384.44
2018-11-29T02:43:09.552Z,96390.42
2018-11-29T02:45:38.233Z,96392.21
2018-11-29T02:48:07.378Z,96386.28
2018-11-29T02:50:36.130Z,96387.95
2018-11-29T02:53:04.835Z,96389.57
2018-11-29T02:55:33.521Z,96387.52
2018-11-29T02:58:02.489Z,96400.39
2018-11-29T03:00:31.142Z,96395.27
2018-11-29T03:02:59.784Z,96399.81
2018-11-29T03:05:28.436Z,96374.59
2018-11-29T03:07:57.115Z,96404.49
2018-11-29T03:10:26.594Z,96410.82
2018-11-29T03:12:55.353Z,96419.02
2018-11-29T03:15:24.028Z,96413.53
2018-11-29T03:21:13.420Z,96428.84
2018-11-29T03:23:42.067Z,96418.23
2018-11-29T03:26:10.850Z,96428.41
2018-11-29T03:28:39.521Z,96426.27
2018-11-29T03:31:08.182Z,96431.05
2018-11-29T03:33:36.819Z,96424.75
2018-11-29T03:36:05.749Z,96443.67
2018-11-29T03:38:34.506Z,96441.09
2018-11-29T03:41:03.306Z,96450.34
2018-11-29T03:43:32.017Z,96450.99
2018-11-29T03:46:00.629Z,96457.76
2018-11-29T03:48:29.315Z,96458.78
2018-11-29T03:50:57.967Z,96459.96
2018-11-29T03:53:26.676Z,96464.34
2018-11-29T03:55:55.311Z,96470.44
2018-11-29T03:58:23.993Z,96473.96
2018-11-29T04:00:52.669Z,96474.19
2018-11-29T04:03:21.254Z,96472.14
2018-11-29T04:05:49.949Z,96473.15
2018-11-29T04:08:18.634Z,96479.16
2018-11-29T04:10:47.278Z,96483.20
2018-11-29T04:13:15.905Z,96484.30
2018-11-29T04:15:44.620Z,96486.38
2018-11-29T04:18:13.218Z,96479.39
2018-11-29T04:20:41.877Z,96485.77
2018-11-29T04:23:10.612Z,96492.60
2018-11-29T04:25:39.234Z,96499.48
2018-11-29T04:28:07.873Z,96498.53
2018-11-29T04:30:36.673Z,96500.75
2018-11-29T04:33:05.378Z,96500.44
2018-11-29T04:35:33.998Z,96499.43
2018-11-29T04:38:02.675Z,96507.27
2018-11-29T04:40:31.361Z,96510.77
2018-11-29T04:43:00.080Z,96508.02
2018-11-29T04:46:47.361Z,96522.73
2018-11-29T04:49:16.086Z,96524.56
2018-11-29T04:51:44.828Z,96524.05
2018-11-29T04:54:13.463Z,96536.52
2018-11-29T04:56:42.102Z,96544.16
2018-11-29T04:59:10.819Z,96550.07
2018-11-29T05:01:39.631Z,96544.86
2018-11-29T05:04:08.398Z,96546.91
2018-11-29T05:06:37.061Z,96545.94
2018-11-29T05:09:09.146Z,96547.72
2018-11-29T05:11:38.492Z,96550.70
2018-11-29T05:14:07.306Z,96558.47
2018-11-29T05:16:36.080Z,96563.89
2018-11-29T05:19:04.851Z,96565.36
2018-11-29T05:21:33.542Z,96565.87
2018-11-29T05:24:02.153Z,96559.50
2018-11-29T05:26:30.776Z,96562.33
2018-11-29T05:28:59.429Z,96563.81
2018-11-29T05:31:28.118Z,96568.28
2018-11-29T05:33:56.810Z,96570.33
2018-11-29T05:36:25.754Z,96575.46
2018-11-29T05:38:54.422Z,96582.37
2018-11-29T05:41:23.112Z,96591.10
2018-11-29T05:43:52.022Z,96595.91
2018-11-29T05:46:21.058Z,96597.63
2018-11-29T05:48:49.823Z,96599.73
2018-11-29T05:51:18.455Z,96603.43
2018-11-29T05:53:47.115Z,96612.74
2018-11-29T05:56:15.865Z,96608.80
2018-11-29T05:58:44.555Z,96619.77
2018-11-29T06:01:20.298Z,96620.49
2018-11-29T06:03:48.987Z,96629.90
2018-11-29T06:06:17.630Z,96629.90
2018-11-29T06:08:46.303Z,96631.36
2018-11-29T06:11:14.939Z,96634.59
2018-11-29T06:13:43.626Z,96642.20
2018-11-29T06:16:12.305Z,96645.25
2018-11-29T06:18:41.005Z,96642.36
2018-11-29T06:21:09.663Z,96656.20
2018-11-29T06:23:38.401Z,96653.37
2018-11-29T06:26:07.287Z,96666.56
2018-11-29T06:28:36.168Z,96663.02
2018-11-29T06:31:04.943Z,96670.17
2018-11-29T06:33:33.723Z,96671.47
2018-11-29T06:36:02.453Z,96665.41
2018-11-29T06:38:31.113Z,96673.17
2018-11-29T06:40:59.762Z,96670.98
2018-11-29T06:43:28.445Z,96675.50
2018-11-29T06:45:57.124Z,96674.77
2018-11-29T06:48:25.771Z,96677.33
2018-11-29T06:50:54.421Z,96680.25
2018-11-29T06:53:28.107Z,96678.17
2018-11-29T06:55:56.857Z,96291.77
2018-11-29T06:58:25.483Z,96685.98
2018-11-29T07:00:54.503Z,96681.59
2018-11-29T07:03:23.195Z,96681.03
2018-11-29T07:05:51.856Z,96690.75
2018-11-29T07:08:20.518Z,96688.25
2018-11-29T07:10:49.272Z,96692.97
2018-11-29T07:13:17.854Z,96597.42
2018-11-29T07:15:46.518Z,96697.37
2018-11-29T07:18:15.185Z,96705.31
2018-11-29T07:20:53.855Z,96700.20
2018-11-29T07:23:22.582Z,96709.59
2018-11-29T07:25:51.257Z,96711.81
2018-11-29T07:28:19.939Z,96707.13
2018-11-29T07:30:48.638Z,96713.23
2018-11-29T07:33:17.353Z,96711.23
2018-11-29T07:35:46.001Z,96712.71
2018-11-29T07:38:14.651Z,96713.81
2018-11-29T07:40:43.367Z,96716.03
2018-11-29T07:43:12.061Z,96720.23
2018-11-29T07:45:40.708Z,96715.69
2018-11-29T07:48:09.423Z,96721.23
2018-11-29T07:50:38.036Z,96724.97
2018-11-29T07:53:06.916Z,96718.48
2018-11-29T07:55:35.636Z,96723.39
2018-11-29T07:58:04.343Z,96720.82
2018-11-29T08:00:33.043Z,96726.38
2018-11-29T08:03:01.751Z,96716.70
2018-11-29T08:05:30.591Z,96725.33
2018-11-29T08:07:59.360Z,96728.83
2018-11-29T08:10:28.063Z,96733.77
2018-11-29T08:12:56.824Z,96699.83
2018-11-29T08:15:25.577Z,96732.95
2018-11-29T08:17:54.340Z,96730.73
2018-11-29T08:20:23.192Z,96726.54
2018-11-29T08:22:52.438Z,96722.75
2018-11-29T08:25:21.237Z,96733.46
2018-11-29T08:27:49.891Z,96729.41
2018-11-29T08:30:18.697Z,96730.95
2018-11-29T08:32:47.362Z,96733.75
2018-11-29T08:35:16.436Z,96739.94
2018-11-29T08:37:46.881Z,96738.54
2018-11-29T08:40:18.696Z,96733.11
2018-11-29T08:42:47.501Z,96740.30
2018-11-29T08:45:16.263Z,96738.82
2018-11-29T08:47:44.956Z,96734.08
2018-11-29T08:50:14.313Z,96732.59
2018-11-29T08:52:44.094Z,96740.69
2018-11-29T08:55:14.910Z,96728.27
2018-11-29T08:57:43.625Z,96736.39
2018-11-29T09:00:14.305Z,96732.86
2018-11-29T09:02:44.370Z,96323.58
2018-11-29T09:05:13.708Z,96730.52
2018-11-29T09:07:42.900Z,96726.90
2018-11-29T09:10:15.754Z,96728.45
2018-11-29T09:12:44.777Z,96726.64
2018-11-29T09:15:14.525Z,96726.98
2018-11-29T09:17:43.523Z,96718.24
2018-11-29T09:20:15.986Z,96717.00
2018-11-29T09:22:44.699Z,96715.16
2018-11-29T09:25:15.602Z,96719.58
2018-11-29T09:27:44.307Z,96723.63
2018-11-29T09:30:16.858Z,96729.05
2018-11-29T09:32:47.100Z,96728.31
2018-11-29T09:35:15.805Z,96717.81
2018-11-29T09:37:44.428Z,96721.41
2018-11-29T09:40:14.340Z,96720.23
2018-11-29T09:42:43.167Z,96719.72
2018-11-29T09:45:14.095Z,96720.77
2018-11-29T09:47:43.029Z,96715.67
2018-11-29T09:50:12.781Z,96710.98
2018-11-29T09:52:41.775Z,96702.30
2018-11-29T09:55:12.651Z,96699.02
2018-11-29T09:57:41.604Z,96702.77
2018-11-29T10:00:17.267Z,96715.41
2018-11-29T10:02:48.762Z,96694.96
2018-11-29T10:05:17.476Z,96697.02
2018-11-29T10:07:46.146Z,96692.91
2018-11-29T10:10:14.837Z,96698.93
2018-11-29T10:12:43.555Z,96695.78
2018-11-29T10:15:13.206Z,96689.98
2018-11-29T10:17:41.915Z,96684.69
2018-11-29T10:20:13.839Z,96681.38
2018-11-29T10:22:43.234Z,96677.70
2018-11-29T10:25:14.062Z,96681.28
2018-11-29T10:27:48.293Z,96679.61
2018-11-29T10:30:19.558Z,96673.09
2018-11-29T10:32:48.529Z,96680.28
2018-11-29T10:35:17.218Z,96677.31
2018-11-29T10:37:45.933Z,96685.17
2018-11-29T10:40:14.675Z,96683.87
2018-11-29T10:42:43.481Z,96686.97
2018-11-29T10:45:14.480Z,96687.63
2018-11-29T10:47:44.102Z,96686.73
2018-11-29T10:50:13.900Z,96690.09
2018-11-29T10:52:42.705Z,96685.33
2018-11-29T10:55:15.743Z,96682.69
2018-11-29T10:57:44.576Z,96681.01
2018-11-29T11:00:27.699Z,96685.70
2018-11-29T11:03:07.774Z,96682.30
2018-11-29T11:05:37.228Z,96685.64
2018-11-29T11:08:08.564Z,96698.31
2018-11-29T11:10:36.183Z,96697.45
2018-11-29T11:13:05.160Z,96687.63
2018-11-29T11:15:33.990Z,96689.41
2018-11-29T11:18:02.829Z,96688.78
2018-11-29T11:20:31.570Z,96690.92
2018-11-29T11:23:00.361Z,96687.49
2018-11-29T11:25:29.192Z,96682.12
2018-11-29T11:27:57.997Z,96684.23
2018-11-29T11:30:26.799Z,96682.91
2018-11-29T11:32:55.513Z,96684.81
2018-11-29T11:35:24.265Z,96681.39
2018-11-29T11:37:53.306Z,96671.33
2018-11-29T11:40:22.086Z,96673.08
2018-11-29T11:42:50.812Z,96678.95
2018-11-29T11:45:20.444Z,96681.34
2018-11-29T11:47:49.408Z,96673.65
2018-11-29T11:50:23.245Z,96676.72
2018-11-29T11:52:52.707Z,96672.33
2018-11-29T11:55:21.446Z,96662.77
2018-11-29T11:57:50.223Z,96656.02
2018-11-29T12:00:21.719Z,96655.16
2018-11-29T12:02:53.105Z,96651.62
2018-11-29T12:05:22.456Z,96649.67
2018-11-29T12:07:51.321Z,96648.67
2018-11-29T12:10:20.102Z,96642.80
2018-11-29T12:12:48.909Z,96641.48
2018-11-29T12:15:18.104Z,96645.45
2018-11-29T12:17:47.437Z,96637.40
2018-11-29T12:20:22.849Z,96639.73
2018-11-29T12:22:51.541Z,96650.46
2018-11-29T12:25:22.160Z,96640.05
2018-11-29T12:27:51.574Z,96651.31
2018-11-29T12:30:25.293Z,96642.80
2018-11-29T12:32:56.655Z,96642.30
2018-11-29T12:35:25.464Z,96645.45
2018-11-29T12:37:54.200Z,96641.63
2018-11-29T12:40:23.337Z,96650.00
2018-11-29T12:42:52.148Z,96647.34
2018-11-29T12:45:20.905Z,96618.47
2018-11-29T12:47:49.643Z,96647.73
2018-11-29T12:50:19.354Z,96644.36
2018-11-29T12:52:48.032Z,96653.30
2018-11-29T12:55:17.760Z,96643.88
2018-11-29T12:57:46.535Z,96646.44
2018-11-29T13:00:18.433Z,96651.04
2018-11-29T13:02:49.341Z,96667.19
2018-11-29T13:05:18.076Z,96642.30
2018-11-29T13:07:46.752Z,96635.25
2018-11-29T13:10:16.734Z,96633.93
2018-11-29T13:12:45.480Z,96640.98
2018-11-29T13:15:19.559Z,96643.20
2018-11-29T13:17:48.362Z,96640.71
2018-11-29T13:20:17.826Z,96650.70
2018-11-29T13:22:46.681Z,96641.95
2018-11-29T13:25:16.540Z,96646.42
2018-11-29T13:27:45.254Z,96642.73
2018-11-29T13:30:15.185Z,96647.43
2018-11-29T13:32:44.032Z,96649.16
2018-11-29T13:35:19.124Z,96643.47
2018-11-29T13:37:52.388Z,96651.11
2018-11-29T13:40:21.229Z,96650.52
2018-11-29T13:42:51.475Z,96662.02
2018-11-29T13:45:20.295Z,96647.88
2018-11-29T13:47:49.998Z,96656.02
2018-11-29T13:50:19.701Z,96659.09
2018-11-29T13:52:48.535Z,96657.58
2018-11-29T13:55:18.282Z,96658.45
2018-11-29T13:57:48.755Z,96656.86
2018-11-29T14:00:21.581Z,96661.23
2018-11-29T14:02:51.714Z,96663.64
2018-11-29T14:05:20.592Z,96662.77
2018-11-29T14:07:49.488Z,96651.12
2018-11-29T14:10:19.336Z,96650.73
2018-11-29T14:12:49.075Z,96655.57
2018-11-29T14:15:20.155Z,96648.70
2018-11-29T14:17:49.300Z,96650.92
2018-11-29T14:20:18.334Z,96656.65
2018-11-29T14:22:47.226Z,96657.30
2018-11-29T14:25:17.237Z,96658.48
2018-11-29T14:27:48.154Z,96659.62
2018-11-29T14:30:18.172Z,96651.16
2018-11-29T14:32:47.113Z,96657.89
2018-11-29T14:35:16.217Z,96662.44
2018-11-29T14:37:45.138Z,96669.45
2018-11-29T14:40:16.356Z,96669.99
2018-11-29T14:42:45.260Z,96668.76
2018-11-29T14:45:15.077Z,96672.09
2018-11-29T14:47:44.101Z,96674.08
2018-11-29T14:50:45.208Z,96679.53
2018-11-29T14:53:14.134Z,96673.77
2018-11-29T14:55:43.031Z,96681.91
2018-11-29T14:58:13.162Z,96674.41
2018-11-29T15:00:42.277Z,96676.85
2018-11-29T15:03:15.768Z,96683.44
2018-11-29T15:05:45.192Z,96682.81
2018-11-29T15:08:13.987Z,96680.50
2018-11-29T15:10:42.742Z,96679.05
2018-11-29T15:13:12.370Z,96677.81
2018-11-29T15:15:41.883Z,96685.95
2018-11-29T15:18:11.434Z,96680.18
2018-11-29T15:20:44.750Z,96676.30
2018-11-29T15:23:14.766Z,96680.26
2018-11-29T15:25:43.632Z,96681.54
2018-11-29T15:28:12.445Z,96685.13
2018-11-29T15:30:41.275Z,96679.57
2018-11-29T15:33:10.061Z,96675.98
2018-11-29T15:35:38.895Z,96680.77
2018-11-29T15:38:08.010Z,96679.53
2018-11-29T15:40:36.998Z,96678.94
2018-11-29T15:43:05.916Z,96688.45
2018-11-29T15:45:34.803Z,96686.25
2018-11-29T15:48:03.577Z,96687.48
2018-11-29T15:50:32.531Z,96691.44
2018-11-29T15:53:01.301Z,96689.02
2018-11-29T15:55:30.138Z,96610.66
2018-11-29T15:57:59.759Z,96697.96
2018-11-29T16:00:29.720Z,96704.14
2018-11-29T16:03:02.935Z,96697.14
2018-11-29T16:05:31.737Z,96703.80
2018-11-29T16:08:00.585Z,96710.92
2018-11-29T16:10:29.329Z,96701.70
2018-11-29T16:12:58.582Z,96717.02
2018-11-29T16:15:27.877Z,96709.10
2018-11-29T16:17:56.586Z,96712.12
2018-11-29T16:20:29.586Z,96707.00
2018-11-29T16:22:58.357Z,96713.27
2018-11-29T16:25:27.247Z,96708.59
2018-11-29T16:27:56.440Z,96711.77
2018-11-29T16:30:28.171Z,96718.14
2018-11-29T16:32:58.360Z,96712.87
2018-11-29T16:35:27.212Z,96708.50
2018-11-29T16:37:56.070Z,96713.27
2018-11-29T16:40:24.984Z,96717.54
2018-11-29T16:42:53.739Z,96722.59
2018-11-29T16:45:22.736Z,96711.86
2018-11-29T16:47:51.544Z,96710.73
2018-11-29T16:50:20.506Z,96716.00
2018-11-29T16:52:49.345Z,96718.14
2018-11-29T16:55:18.191Z,96717.39
2018-11-29T16:57:50.990Z,96710.73
2018-11-29T17:00:21.441Z,96352.17
2018-11-29T17:02:50.267Z,96707.56
2018-11-29T17:05:19.135Z,96706.66
2018-11-29T17:07:47.922Z,96710.89
2018-11-29T17:10:18.914Z,96711.70
2018-11-29T17:12:59.914Z,96703.48
2018-11-29T17:15:28.759Z,96712.71
2018-11-29T17:17:57.659Z,96715.97
2018-11-29T17:20:26.595Z,96710.39
2018-11-29T17:22:55.383Z,96712.62
2018-11-29T17:25:24.261Z,96712.80
2018-11-29T17:27:53.115Z,96716.85
2018-11-29T17:30:23.861Z,96713.12
2018-11-29T17:32:58.475Z,96710.77
2018-11-29T17:35:27.363Z,96704.77
2018-11-29T17:37:58.583Z,96706.27
2018-11-29T17:40:27.495Z,96711.41
2018-11-29T17:42:57.067Z,96703.59
2018-11-29T17:45:27.102Z,96703.14
2018-11-29T17:47:57.218Z,96699.91
2018-11-29T17:50:27.498Z,96709.52
2018-11-29T17:52:56.240Z,96704.06
2018-11-29T17:55:25.189Z,96705.97
2018-11-29T17:57:54.068Z,96707.19
2018-11-29T18:00:25.052Z,96702.59
2018-11-29T18:02:54.053Z,96712.92
2018-11-29T18:05:22.991Z,96705.77
2018-11-29T18:07:51.921Z,96707.09
2018-11-29T18:10:25.680Z,96700.97
2018-11-29T18:12:58.978Z,96697.63
2018-11-29T18:15:29.311Z,96700.09
2018-11-29T18:17:58.131Z,96699.96
2018-11-29T18:20:26.856Z,96701.18
2018-11-29T18:22:55.686Z,96700.73
2018-11-29T18:25:24.512Z,96698.55
2018-11-29T18:27:53.804Z,96691.45
2018-11-29T18:30:23.464Z,96696.69
2018-11-29T18:32:52.180Z,96696.55
2018-11-29T18:35:20.953Z,96694.41
2018-11-29T18:37:50.172Z,96691.41
2018-11-29T18:40:19.637Z,96695.05
2018-11-29T18:42:55.752Z,96689.31
2018-11-29T18:45:24.537Z,96690.73
2018-11-29T18:47:54.000Z,96694.45
2018-11-29T18:50:24.568Z,96700.92
2018-11-29T18:52:53.662Z,96688.33
2018-11-29T18:55:25.271Z,96692.91
2018-11-29T18:57:54.845Z,96692.05
2018-11-29T19:00:26.823Z,96695.31
2018-11-29T19:02:57.120Z,96690.04
2018-11-29T19:05:25.468Z,96698.55
2018-11-29T19:07:54.180Z,96684.22
2018-11-29T19:10:23.978Z,96693.14
2018-11-29T19:12:55.263Z,96690.38
2018-11-29T19:15:23.980Z,96689.64
2018-11-29T19:17:52.678Z,96694.64
2018-11-29T19:20:21.448Z,96642.25
2018-11-29T19:22:50.249Z,96676.45
2018-11-29T19:25:19.952Z,96689.64
2018-11-29T19:27:48.702Z,96688.05
2018-11-29T19:30:19.140Z,96697.09
2018-11-29T19:32:51.282Z,96692.00
2018-11-29T19:35:20.193Z,96694.50
2018-11-29T19:37:49.470Z,96719.45
2018-11-29T19:40:18.341Z,96698.68
2018-11-29T19:42:47.138Z,96701.03
2018-11-29T19:45:16.597Z,96705.52
2018-11-29T19:47:45.446Z,96707.38
2018-11-29T19:50:16.340Z,96702.23
2018-11-29T19:52:48.253Z,96700.14
2018-11-29T19:55:19.741Z,96705.12
2018-11-29T19:57:48.569Z,96698.36
2018-11-29T20:00:19.487Z,96705.58
2018-11-29T20:02:48.985Z,96695.46
2018-11-29T20:05:17.754Z,96698.39
2018-11-29T20:07:46.613Z,96704.06
2018-11-29T20:10:16.581Z,96705.98
2018-11-29T20:12:46.274Z,96707.72
2018-11-29T20:15:19.240Z,96704.77
2018-11-29T20:17:48.354Z,96710.47
2018-11-29T20:20:17.254Z,96717.04
2018-11-29T20:22:46.126Z,96711.17
2018-11-29T20:25:17.070Z,96705.89
2018-11-29T20:27:45.992Z,96710.56
2018-11-29T20:30:18.399Z,96712.80
2018-11-29T20:32:48.017Z,96708.45
2018-11-29T20:35:17.323Z,96704.41
2018-11-29T20:37:46.117Z,96700.13
2018-11-29T20:40:24.627Z,96702.48
2018-11-29T20:42:55.457Z,96701.67
2018-11-29T20:45:34.925Z,96694.45
2018-11-29T20:48:15.180Z,96699.54
2018-11-29T20:50:43.945Z,96689.72
2018-11-29T20:53:14.542Z,96694.56
2018-11-29T20:55:43.255Z,96694.06
2018-11-29T20:58:11.943Z,96691.75
2018-11-29T21:00:40.778Z,96691.12
2018-11-29T21:03:09.753Z,96691.94
2018-11-29T21:05:40.287Z,96691.33
2018-11-29T21:08:10.171Z,96688.81
2018-11-29T21:10:39.166Z,96683.13
2018-11-29T21:13:08.707Z,96682.63
2018-11-29T21:15:40.196Z,96686.58
2018-11-29T21:18:10.214Z,96681.50
2018-11-29T21:20:39.814Z,96679.89
2018-11-29T21:23:10.778Z,96669.06
2018-11-29T21:25:39.590Z,96681.50
2018-11-29T21:28:08.430Z,96675.12
2018-11-29T21:30:37.645Z,96671.08
2018-11-29T21:33:07.093Z,96671.80
2018-11-29T21:35:35.945Z,96670.06
2018-11-29T21:38:13.134Z,96663.91
2018-11-29T21:40:43.591Z,96658.12
2018-11-29T21:43:12.356Z,96656.52
2018-11-29T21:45:41.225Z,96658.83
2018-11-29T21:48:10.002Z,96656.20
2018-11-29T21:50:38.888Z,96649.94
2018-11-29T21:53:07.884Z,96650.34
2018-11-29T21:55:36.628Z,96644.97
2018-11-29T21:58:05.671Z,96645.47
2018-11-29T22:00:34.452Z,96649.73
2018-11-29T22:03:03.363Z,96648.52
2018-11-29T22:05:32.263Z,96639.00
2018-11-29T22:08:00.977Z,96641.63
2018-11-29T22:10:29.747Z,96643.97
2018-11-29T22:12:58.534Z,96638.08
2018-11-29T22:15:27.290Z,96644.58
2018-11-29T22:18:16.996Z,96640.42
2018-11-29T22:20:45.804Z,96634.14
2018-11-29T22:23:14.575Z,96626.36
2018-11-29T22:25:43.816Z,96617.05
2018-11-29T22:28:12.539Z,96614.00
2018-11-29T22:30:41.506Z,96610.97
2018-11-29T22:33:10.289Z,96608.45
2018-11-29T22:35:39.176Z,96609.16
2018-11-29T22:38:08.462Z,96594.81
2018-11-29T22:40:37.306Z,96590.76
2018-11-29T22:43:06.208Z,96586.92
2018-11-29T22:45:34.944Z,96593.49
2018-11-29T22:48:03.715Z,96595.02
2018-11-29T22:50:32.421Z,96591.78
2018-11-29T22:53:01.205Z,96588.95
2018-11-29T22:55:30.086Z,96589.55
2018-11-29T22:57:58.917Z,96590.66
2018-11-29T23:00:32.237Z,96592.68
2018-11-29T23:03:01.362Z,96578.61
2018-11-29T23:05:30.128Z,96584.50
2018-11-29T23:07:58.928Z,96576.41
2018-11-29T23:10:27.898Z,96580.43
2018-11-29T23:12:56.486Z,96575.56
2018-11-29T23:15:25.256Z,96576.28
2018-11-29T23:17:54.183Z,96573.57
2018-11-29T23:20:22.963Z,96576.38
2018-11-29T23:22:51.815Z,96573.86
2018-11-29T23:25:20.526Z,96579.30
2018-11-29T23:27:49.365Z,96570.20
2018-11-29T23:30:18.425Z,96568.28
2018-11-29T23:32:47.150Z,96567.19
2018-11-29T23:35:16.324Z,96564.13
2018-11-29T23:37:45.133Z,96567.47
2018-11-29T23:40:17.667Z,96565.77
2018-11-29T23:42:46.900Z,96569.52
2018-11-29T23:45:15.817Z,96567.71
2018-11-29T23:47:44.595Z,96566.58
2018-11-29T23:50:18.169Z,96556.46
2018-11-29T23:52:47.302Z,96556.25
2018-11-29T23:55:19.243Z,96555.64
2018-11-29T23:57:48.094Z,96559.86
